sensor_id;sensor_type;location;lat;lon;timestamp;pressure;altitude;pressure_sealevel;temperature;humidity
62510;BME280;48558;48.242;11.654;2023-04-19T00:00:26;96717.31;;;8.28;100.00
62510;BME280;48558;48.242;11.654;2023-04-19T00:04:39;96709.22;;;8.21;100.00
62510;BME280;48558;48.242;11.654;2023-04-19T00:08:51;96697.34;;;8.24;100.00
62510;BME280;48558;48.242;11.654;2023-04-19T00:13:14;96699.44;;;8.20;100.00
62510;BME280;48558;48.242;11.654;2023-04-19T00:17:26;96702.06;;;8.24;100.00
62510;BME280;48558;48.242;11.654;2023-04-19T00:21:40;96683.13;;;8.13;100.00
62510;BME280;48558;48.242;11.654;2023-04-19T00:25:52;96700.72;;;8.32;100.00
62510;BME280;48558;48.242;11.654;2023-04-19T00:30:05;96691.91;;;8.08;100.00
62510;BME280;48558;48.242;11.654;2023-04-19T00:34:18;96680.81;;;8.12;100.00
62510;BME280;48558;48.242;11.654;2023-04-19T00:38:30;96680.81;;;8.12;100.00
62510;BME280;48558;48.242;11.654;2023-04-19T00:42:43;96673.31;;;8.12;100.00
62510;BME280;48558;48.242;11.654;2023-04-19T00:46:56;96672.56;;;8.24;100.00
62510;BME280;48558;48.242;11.654;2023-04-19T00:51:08;96674.75;;;8.04;100.00
62510;BME280;48558;48.242;11.654;2023-04-19T00:55:22;96648.19;;;7.97;100.00
62510;BME280;48558;48.242;11.654;2023-04-19T00:59:35;96667.81;;;8.12;100.00
62510;BME280;48558;48.242;11.654;2023-04-19T01:03:48;96668.63;;;8.25;100.00
62510;BME280;48558;48.242;11.654;2023-04-19T01:08:01;96655.06;;;8.18;100.00
62510;BME280;48558;48.242;11.654;2023-04-19T01:12:24;96655.22;;;8.27;100.00
62510;BME280;48558;48.242;11.654;2023-04-19T01:16:36;96663.72;;;8.04;100.00
62510;BME280;48558;48.242;11.654;2023-04-19T01:21:00;96650.97;;;8.10;100.00
62510;BME280;48558;48.242;11.654;2023-04-19T01:25:12;96646.25;;;8.11;100.00
62510;BME280;48558;48.242;11.654;2023-04-19T01:29:25;96647.69;;;8.15;100.00
62510;BME280;48558;48.242;11.654;2023-04-19T01:33:37;96642.38;;;8.08;100.00
62510;BME280;48558;48.242;11.654;2023-04-19T01:38:00;96641.72;;;8.04;100.00
62510;BME280;48558;48.242;11.654;2023-04-19T01:42:15;96633.34;;;8.08;100.00
62510;BME280;48558;48.242;11.654;2023-04-19T01:46:28;96624.09;;;8.14;100.00
62510;BME280;48558;48.242;11.654;2023-04-19T01:50:40;96632.72;;;8.16;100.00
62510;BME280;48558;48.242;11.654;2023-04-19T01:54:53;96626.53;;;8.12;100.00
62510;BME280;48558;48.242;11.654;2023-04-19T01:59:05;96621.00;;;8.00;100.00
62510;BME280;48558;48.242;11.654;2023-04-19T02:03:18;96620.78;;;7.94;100.00
62510;BME280;48558;48.242;11.654;2023-04-19T02:07:31;96624.75;;;7.93;100.00
62510;BME280;48558;48.242;11.654;2023-04-19T02:11:53;96623.09;;;7.95;100.00
62510;BME280;48558;48.242;11.654;2023-04-19T02:16:06;96610.66;;;7.91;100.00
62510;BME280;48558;48.242;11.654;2023-04-19T02:20:19;96612.84;;;7.96;100.00
62510;BME280;48558;48.242;11.654;2023-04-19T02:24:32;96597.75;;;7.88;100.00
62510;BME280;48558;48.242;11.654;2023-04-19T02:28:44;96583.22;;;7.87;100.00
62510;BME280;48558;48.242;11.654;2023-04-19T02:32:57;96602.53;;;8.00;100.00
62510;BME280;48558;48.242;11.654;2023-04-19T02:37:10;96590.09;;;8.08;100.00
62510;BME280;48558;48.242;11.654;2023-04-19T02:41:23;96595.25;;;7.93;100.00
62510;BME280;48558;48.242;11.654;2023-04-19T02:45:35;96590.75;;;8.00;100.00
62510;BME280;48558;48.242;11.654;2023-04-19T02:49:48;96587.88;;;8.03;100.00
62510;BME280;48558;48.242;11.654;2023-04-19T02:54:00;96595.59;;;7.95;100.00
62510;BME280;48558;48.242;11.654;2023-04-19T02:58:13;96589.63;;;7.97;100.00
62510;BME280;48558;48.242;11.654;2023-04-19T03:02:26;96583.34;;;7.96;100.00
62510;BME280;48558;48.242;11.654;2023-04-19T03:06:38;96585.25;;;8.00;100.00
62510;BME280;48558;48.242;11.654;2023-04-19T03:10:51;96574.66;;;7.85;100.00
62510;BME280;48558;48.242;11.654;2023-04-19T03:15:05;96573.88;;;7.85;100.00
62510;BME280;48558;48.242;11.654;2023-04-19T03:19:19;96565.19;;;7.86;100.00
62510;BME280;48558;48.242;11.654;2023-04-19T03:23:31;96562.44;;;7.99;100.00
62510;BME280;48558;48.242;11.654;2023-04-19T03:27:55;96563.97;;;7.87;100.00
62510;BME280;48558;48.242;11.654;2023-04-19T03:32:08;96552.44;;;7.92;100.00
62510;BME280;48558;48.242;11.654;2023-04-19T03:36:20;96546.03;;;8.08;100.00
62510;BME280;48558;48.242;11.654;2023-04-19T03:40:33;96552.22;;;8.00;100.00
62510;BME280;48558;48.242;11.654;2023-04-19T03:44:45;96545.84;;;8.03;100.00
62510;BME280;48558;48.242;11.654;2023-04-19T03:48:58;96544.75;;;8.00;100.00
62510;BME280;48558;48.242;11.654;2023-04-19T03:53:10;96538.91;;;7.98;100.00
62510;BME280;48558;48.242;11.654;2023-04-19T03:57:23;96543.84;;;7.90;100.00
62510;BME280;48558;48.242;11.654;2023-04-19T04:01:45;96536.69;;;7.93;100.00
62510;BME280;48558;48.242;11.654;2023-04-19T04:05:58;96540.44;;;7.99;100.00
62510;BME280;48558;48.242;11.654;2023-04-19T04:10:11;96544.63;;;8.04;100.00
62510;BME280;48558;48.242;11.654;2023-04-19T04:14:23;96542.09;;;8.09;100.00
62510;BME280;48558;48.242;11.654;2023-04-19T04:18:36;96542.63;;;8.04;100.00
62510;BME280;48558;48.242;11.654;2023-04-19T04:22:48;96543.09;;;8.03;100.00
62510;BME280;48558;48.242;11.654;2023-04-19T04:27:01;96536.34;;;8.04;100.00
62510;BME280;48558;48.242;11.654;2023-04-19T04:31:14;96537.78;;;8.08;100.00
62510;BME280;48558;48.242;11.654;2023-04-19T04:35:29;96556.06;;;8.02;100.00
62510;BME280;48558;48.242;11.654;2023-04-19T04:39:41;96546.16;;;8.05;100.00
62510;BME280;48558;48.242;11.654;2023-04-19T04:43:54;96538.00;;;8.01;100.00
62510;BME280;48558;48.242;11.654;2023-04-19T04:48:23;96520.84;;;7.97;100.00
62510;BME280;48558;48.242;11.654;2023-04-19T04:52:36;96512.69;;;8.06;100.00
62510;BME280;48558;48.242;11.654;2023-04-19T04:56:49;96528.66;;;8.11;100.00
62510;BME280;48558;48.242;11.654;2023-04-19T05:01:02;96521.16;;;8.24;100.00
62510;BME280;48558;48.242;11.654;2023-04-19T05:05:15;96536.13;;;8.23;100.00
62510;BME280;48558;48.242;11.654;2023-04-19T05:09:34;96527.44;;;8.37;100.00
62510;BME280;48558;48.242;11.654;2023-04-19T05:13:47;96529.22;;;8.31;100.00
62510;BME280;48558;48.242;11.654;2023-04-19T05:17:59;96539.78;;;8.20;100.00
62510;BME280;48558;48.242;11.654;2023-04-19T05:22:21;96539.38;;;8.34;100.00
62510;BME280;48558;48.242;11.654;2023-04-19T05:26:34;96535.94;;;8.30;100.00
62510;BME280;48558;48.242;11.654;2023-04-19T05:30:47;96532.09;;;8.40;100.00
62510;BME280;48558;48.242;11.654;2023-04-19T05:34:59;96521.16;;;8.49;100.00
62510;BME280;48558;48.242;11.654;2023-04-19T05:39:12;96536.59;;;8.47;100.00
62510;BME280;48558;48.242;11.654;2023-04-19T05:43:24;96520.72;;;8.51;100.00
62510;BME280;48558;48.242;11.654;2023-04-19T05:47:37;96527.91;;;8.36;100.00
62510;BME280;48558;48.242;11.654;2023-04-19T05:51:50;96529.44;;;8.37;100.00
62510;BME280;48558;48.242;11.654;2023-04-19T05:56:04;96529.97;;;8.44;100.00
62510;BME280;48558;48.242;11.654;2023-04-19T06:00:16;96531.09;;;8.34;100.00
62510;BME280;48558;48.242;11.654;2023-04-19T06:04:30;96526.34;;;8.22;100.00
62510;BME280;48558;48.242;11.654;2023-04-19T06:08:42;96527.88;;;8.23;100.00
62510;BME280;48558;48.242;11.654;2023-04-19T06:12:55;96521.41;;;8.30;100.00
62510;BME280;48558;48.242;11.654;2023-04-19T06:17:17;96529.56;;;8.33;100.00
62510;BME280;48558;48.242;11.654;2023-04-19T06:21:37;96532.91;;;8.62;100.00
62510;BME280;48558;48.242;11.654;2023-04-19T06:25:49;96522.53;;;8.66;100.00
62510;BME280;48558;48.242;11.654;2023-04-19T06:30:12;96505.34;;;8.75;100.00
62510;BME280;48558;48.242;11.654;2023-04-19T06:34:24;96512.38;;;9.10;100.00
62510;BME280;48558;48.242;11.654;2023-04-19T06:38:37;96517.81;;;9.23;100.00
62510;BME280;48558;48.242;11.654;2023-04-19T06:42:52;96515.84;;;9.45;100.00
62510;BME280;48558;48.242;11.654;2023-04-19T06:47:04;96507.69;;;9.63;100.00
62510;BME280;48558;48.242;11.654;2023-04-19T06:51:17;96508.22;;;9.49;100.00
62510;BME280;48558;48.242;11.654;2023-04-19T06:55:29;96497.06;;;9.83;100.00
62510;BME280;48558;48.242;11.654;2023-04-19T06:59:42;96499.75;;;9.44;100.00
62510;BME280;48558;48.242;11.654;2023-04-19T07:03:55;96495.50;;;9.82;100.00
62510;BME280;48558;48.242;11.654;2023-04-19T07:08:08;96502.91;;;9.64;100.00
62510;BME280;48558;48.242;11.654;2023-04-19T07:12:20;96500.84;;;10.07;100.00
62510;BME280;48558;48.242;11.654;2023-04-19T07:16:33;96484.81;;;10.15;100.00
62510;BME280;48558;48.242;11.654;2023-04-19T07:20:45;96494.19;;;10.27;100.00
62510;BME280;48558;48.242;11.654;2023-04-19T07:24:59;96491.38;;;10.94;100.00
62510;BME280;48558;48.242;11.654;2023-04-19T07:29:22;96485.25;;;11.08;100.00
62510;BME280;48558;48.242;11.654;2023-04-19T07:33:35;96487.53;;;11.09;100.00
62510;BME280;48558;48.242;11.654;2023-04-19T07:37:48;96486.72;;;11.54;100.00
62510;BME280;48558;48.242;11.654;2023-04-19T07:42:10;96475.94;;;12.16;100.00
62510;BME280;48558;48.242;11.654;2023-04-19T07:46:23;96473.59;;;11.82;100.00
62510;BME280;48558;48.242;11.654;2023-04-19T07:50:36;96477.59;;;11.81;100.00
62510;BME280;48558;48.242;11.654;2023-04-19T07:54:48;96477.56;;;12.55;100.00
62510;BME280;48558;48.242;11.654;2023-04-19T07:59:01;96476.72;;;12.87;100.00
62510;BME280;48558;48.242;11.654;2023-04-19T08:03:30;96473.13;;;12.49;100.00
62510;BME280;48558;48.242;11.654;2023-04-19T08:07:43;96459.09;;;13.67;100.00
62510;BME280;48558;48.242;11.654;2023-04-19T08:11:56;96462.44;;;13.56;100.00
62510;BME280;48558;48.242;11.654;2023-04-19T08:16:09;96451.03;;;13.69;100.00
62510;BME280;48558;48.242;11.654;2023-04-19T08:20:24;96458.63;;;12.77;100.00
62510;BME280;48558;48.242;11.654;2023-04-19T08:24:37;96451.81;;;12.64;100.00
62510;BME280;48558;48.242;11.654;2023-04-19T08:28:52;96444.91;;;12.03;100.00
62510;BME280;48558;48.242;11.654;2023-04-19T08:33:06;96449.50;;;12.39;100.00
62510;BME280;48558;48.242;11.654;2023-04-19T08:37:19;96451.44;;;12.47;100.00
62510;BME280;48558;48.242;11.654;2023-04-19T08:41:32;96451.88;;;12.22;100.00
62510;BME280;48558;48.242;11.654;2023-04-19T08:45:49;96447.31;;;12.66;100.00
62510;BME280;48558;48.242;11.654;2023-04-19T08:50:06;96445.09;;;12.94;100.00
62510;BME280;48558;48.242;11.654;2023-04-19T08:54:40;96439.72;;;14.36;95.12
62510;BME280;48558;48.242;11.654;2023-04-19T08:58:53;96435.50;;;15.47;91.47
62510;BME280;48558;48.242;11.654;2023-04-19T09:03:25;96429.88;;;13.28;100.00
62510;BME280;48558;48.242;11.654;2023-04-19T09:07:38;96427.19;;;12.33;100.00
62510;BME280;48558;48.242;11.654;2023-04-19T09:11:51;96412.94;;;12.26;100.00
62510;BME280;48558;48.242;11.654;2023-04-19T09:16:06;96417.31;;;11.85;100.00
62510;BME280;48558;48.242;11.654;2023-04-19T09:20:34;96411.25;;;12.19;100.00
62510;BME280;48558;48.242;11.654;2023-04-19T09:24:50;96405.69;;;12.52;100.00
62510;BME280;48558;48.242;11.654;2023-04-19T09:29:23;96407.44;;;12.64;100.00
62510;BME280;48558;48.242;11.654;2023-04-19T09:33:37;96398.56;;;12.74;100.00
62510;BME280;48558;48.242;11.654;2023-04-19T09:37:59;96391.75;;;12.37;100.00
62510;BME280;48558;48.242;11.654;2023-04-19T09:42:17;96392.88;;;12.07;100.00
62510;BME280;48558;48.242;11.654;2023-04-19T09:46:51;96377.53;;;11.73;100.00
62510;BME280;48558;48.242;11.654;2023-04-19T09:51:14;96389.25;;;11.92;100.00
62510;BME280;48558;48.242;11.654;2023-04-19T09:55:27;96381.34;;;11.76;100.00
62510;BME280;48558;48.242;11.654;2023-04-19T09:59:46;96378.75;;;12.05;100.00
62510;BME280;48558;48.242;11.654;2023-04-19T10:03:58;96377.97;;;11.63;100.00
62510;BME280;48558;48.242;11.654;2023-04-19T10:08:31;96370.50;;;10.94;100.00
62510;BME280;48558;48.242;11.654;2023-04-19T10:12:56;96378.94;;;11.00;100.00
62510;BME280;48558;48.242;11.654;2023-04-19T10:17:29;96371.72;;;10.93;100.00
62510;BME280;48558;48.242;11.654;2023-04-19T10:21:42;96368.97;;;11.53;100.00
62510;BME280;48558;48.242;11.654;2023-04-19T10:25:59;96364.34;;;11.50;100.00
62510;BME280;48558;48.242;11.654;2023-04-19T10:30:19;96358.59;;;12.04;100.00
62510;BME280;48558;48.242;11.654;2023-04-19T10:34:36;96350.09;;;12.32;100.00
62510;BME280;48558;48.242;11.654;2023-04-19T10:38:59;96355.50;;;12.50;100.00
62510;BME280;48558;48.242;11.654;2023-04-19T10:47:43;96339.94;;;12.29;100.00
62510;BME280;48558;48.242;11.654;2023-04-19T10:52:26;96331.38;;;11.70;100.00
62510;BME280;48558;48.242;11.654;2023-04-19T11:01:30;96325.88;;;11.28;100.00
62510;BME280;48558;48.242;11.654;2023-04-19T11:06:13;96318.53;;;11.49;100.00
62510;BME280;48558;48.242;11.654;2023-04-19T11:10:31;96321.03;;;10.96;100.00
62510;BME280;48558;48.242;11.654;2023-04-19T11:14:44;96317.00;;;11.06;100.00
62510;BME280;48558;48.242;11.654;2023-04-19T11:18:58;96326.91;;;10.71;100.00
62510;BME280;48558;48.242;11.654;2023-04-19T11:23:15;96321.72;;;10.46;100.00
62510;BME280;48558;48.242;11.654;2023-04-19T11:27:33;96317.09;;;10.52;100.00
62510;BME280;48558;48.242;11.654;2023-04-19T11:31:46;96319.72;;;10.55;100.00
62510;BME280;48558;48.242;11.654;2023-04-19T11:35:58;96312.06;;;10.50;100.00
62510;BME280;48558;48.242;11.654;2023-04-19T11:40:15;96318.06;;;10.49;100.00
62510;BME280;48558;48.242;11.654;2023-04-19T11:44:39;96305.91;;;10.46;100.00
62510;BME280;48558;48.242;11.654;2023-04-19T11:48:53;96307.91;;;10.64;100.00
62510;BME280;48558;48.242;11.654;2023-04-19T11:53:11;96310.97;;;10.48;100.00
62510;BME280;48558;48.242;11.654;2023-04-19T11:57:30;96311.84;;;9.81;100.00
62510;BME280;48558;48.242;11.654;2023-04-19T12:01:43;96310.56;;;9.15;100.00
62510;BME280;48558;48.242;11.654;2023-04-19T12:05:58;96308.97;;;9.36;100.00
62510;BME280;48558;48.242;11.654;2023-04-19T12:10:12;96315.47;;;9.60;100.00
62510;BME280;48558;48.242;11.654;2023-04-19T12:14:25;96300.78;;;9.72;100.00
62510;BME280;48558;48.242;11.654;2023-04-19T12:18:55;96300.16;;;9.77;100.00
62510;BME280;48558;48.242;11.654;2023-04-19T12:23:08;96295.66;;;10.29;100.00
62510;BME280;48558;48.242;11.654;2023-04-19T12:27:22;96287.38;;;10.20;100.00
62510;BME280;48558;48.242;11.654;2023-04-19T12:31:36;96285.50;;;10.44;100.00
62510;BME280;48558;48.242;11.654;2023-04-19T12:35:49;96290.09;;;10.65;100.00
62510;BME280;48558;48.242;11.654;2023-04-19T12:40:02;96273.91;;;10.91;100.00
62510;BME280;48558;48.242;11.654;2023-04-19T12:44:15;96277.66;;;10.69;100.00
62510;BME280;48558;48.242;11.654;2023-04-19T12:48:27;96271.09;;;10.49;100.00
62510;BME280;48558;48.242;11.654;2023-04-19T12:52:40;96272.00;;;10.09;100.00
62510;BME280;48558;48.242;11.654;2023-04-19T12:56:54;96270.16;;;10.16;100.00
62510;BME280;48558;48.242;11.654;2023-04-19T13:01:07;96274.19;;;10.15;100.00
62510;BME280;48558;48.242;11.654;2023-04-19T13:05:20;96261.44;;;10.17;100.00
62510;BME280;48558;48.242;11.654;2023-04-19T13:09:33;96266.66;;;10.15;100.00
62510;BME280;48558;48.242;11.654;2023-04-19T13:13:45;96262.81;;;10.13;100.00
62510;BME280;48558;48.242;11.654;2023-04-19T13:17:58;96263.56;;;9.86;100.00
62510;BME280;48558;48.242;11.654;2023-04-19T13:22:13;96262.31;;;10.05;100.00
62510;BME280;48558;48.242;11.654;2023-04-19T13:26:26;96255.69;;;9.57;100.00
62510;BME280;48558;48.242;11.654;2023-04-19T13:30:40;96256.72;;;9.42;100.00
62510;BME280;48558;48.242;11.654;2023-04-19T13:34:53;96258.06;;;9.28;100.00
62510;BME280;48558;48.242;11.654;2023-04-19T13:39:05;96266.41;;;9.55;100.00
62510;BME280;48558;48.242;11.654;2023-04-19T13:43:19;96263.19;;;9.08;100.00
62510;BME280;48558;48.242;11.654;2023-04-19T13:47:32;96277.47;;;8.54;100.00
62510;BME280;48558;48.242;11.654;2023-04-19T13:51:45;96278.84;;;8.15;100.00
62510;BME280;48558;48.242;11.654;2023-04-19T13:56:01;96274.31;;;8.21;100.00
62510;BME280;48558;48.242;11.654;2023-04-19T14:00:14;96273.75;;;8.05;100.00
62510;BME280;48558;48.242;11.654;2023-04-19T14:04:31;96273.22;;;7.97;100.00
62510;BME280;48558;48.242;11.654;2023-04-19T14:08:43;96273.06;;;7.79;100.00
62510;BME280;48558;48.242;11.654;2023-04-19T14:12:56;96278.94;;;7.56;100.00
62510;BME280;48558;48.242;11.654;2023-04-19T14:17:09;96283.03;;;7.26;100.00
62510;BME280;48558;48.242;11.654;2023-04-19T14:21:21;96281.16;;;7.36;100.00
62510;BME280;48558;48.242;11.654;2023-04-19T14:25:34;96293.69;;;7.49;100.00
62510;BME280;48558;48.242;11.654;2023-04-19T14:29:47;96286.00;;;7.57;100.00
62510;BME280;48558;48.242;11.654;2023-04-19T14:34:00;96300.75;;;7.50;100.00
62510;BME280;48558;48.242;11.654;2023-04-19T14:38:17;96300.16;;;6.67;100.00
62510;BME280;48558;48.242;11.654;2023-04-19T14:42:30;96292.94;;;6.73;100.00
62510;BME280;48558;48.242;11.654;2023-04-19T14:46:43;96290.97;;;6.74;100.00
62510;BME280;48558;48.242;11.654;2023-04-19T14:50:56;96306.09;;;6.66;100.00
62510;BME280;48558;48.242;11.654;2023-04-19T14:55:09;96302.03;;;6.70;100.00
62510;BME280;48558;48.242;11.654;2023-04-19T14:59:22;96298.38;;;6.48;100.00
62510;BME280;48558;48.242;11.654;2023-04-19T15:03:34;96296.16;;;6.43;100.00
62510;BME280;48558;48.242;11.654;2023-04-19T15:07:48;96291.59;;;6.65;100.00
62510;BME280;48558;48.242;11.654;2023-04-19T15:12:01;96301.59;;;6.59;100.00
62510;BME280;48558;48.242;11.654;2023-04-19T15:16:13;96305.41;;;6.49;100.00
62510;BME280;48558;48.242;11.654;2023-04-19T15:20:26;96295.09;;;6.53;100.00
62510;BME280;48558;48.242;11.654;2023-04-19T15:24:38;96293.81;;;6.70;100.00
62510;BME280;48558;48.242;11.654;2023-04-19T15:28:53;96298.31;;;6.77;100.00
62510;BME280;48558;48.242;11.654;2023-04-19T15:33:07;96298.75;;;6.88;100.00
62510;BME280;48558;48.242;11.654;2023-04-19T15:37:23;96312.28;;;6.95;100.00
62510;BME280;48558;48.242;11.654;2023-04-19T15:41:38;96312.81;;;6.90;100.00
62510;BME280;48558;48.242;11.654;2023-04-19T15:45:51;96307.44;;;6.86;100.00
62510;BME280;48558;48.242;11.654;2023-04-19T15:50:04;96314.16;;;6.98;100.00
62510;BME280;48558;48.242;11.654;2023-04-19T15:54:16;96320.06;;;6.71;100.00
62510;BME280;48558;48.242;11.654;2023-04-19T15:58:29;96325.63;;;6.55;100.00
62510;BME280;48558;48.242;11.654;2023-04-19T16:02:42;96325.22;;;6.69;100.00
62510;BME280;48558;48.242;11.654;2023-04-19T16:06:54;96328.50;;;6.64;100.00
62510;BME280;48558;48.242;11.654;2023-04-19T16:11:17;96327.25;;;6.40;100.00
62510;BME280;48558;48.242;11.654;2023-04-19T16:15:30;96327.28;;;6.65;100.00
62510;BME280;48558;48.242;11.654;2023-04-19T16:19:43;96331.31;;;6.48;100.00
62510;BME280;48558;48.242;11.654;2023-04-19T16:23:56;96338.41;;;6.33;100.00
62510;BME280;48558;48.242;11.654;2023-04-19T16:28:08;96327.81;;;6.19;100.00
62510;BME280;48558;48.242;11.654;2023-04-19T16:32:21;96328.34;;;6.42;100.00
62510;BME280;48558;48.242;11.654;2023-04-19T16:36:34;96323.09;;;6.61;100.00
62510;BME280;48558;48.242;11.654;2023-04-19T16:40:47;96323.03;;;6.64;100.00
62510;BME280;48558;48.242;11.654;2023-04-19T16:45:02;96312.28;;;6.82;100.00
62510;BME280;48558;48.242;11.654;2023-04-19T16:49:17;96308.97;;;6.62;100.00
62510;BME280;48558;48.242;11.654;2023-04-19T16:53:30;96308.66;;;6.73;100.00
62510;BME280;48558;48.242;11.654;2023-04-19T16:57:43;96298.19;;;6.68;100.00
62510;BME280;48558;48.242;11.654;2023-04-19T17:01:55;96291.91;;;6.55;100.00
62510;BME280;48558;48.242;11.654;2023-04-19T17:06:12;96278.84;;;6.59;100.00
62510;BME280;48558;48.242;11.654;2023-04-19T17:10:25;96264.88;;;6.40;100.00
62510;BME280;48558;48.242;11.654;2023-04-19T17:14:38;96258.94;;;6.29;100.00
62510;BME280;48558;48.242;11.654;2023-04-19T17:19:00;96272.28;;;6.15;100.00
62510;BME280;48558;48.242;11.654;2023-04-19T17:23:12;96280.91;;;6.01;100.00
62510;BME280;48558;48.242;11.654;2023-04-19T17:27:25;96285.28;;;5.98;100.00
62510;BME280;48558;48.242;11.654;2023-04-19T17:31:38;96281.75;;;5.98;100.00
62510;BME280;48558;48.242;11.654;2023-04-19T17:35:50;96280.66;;;5.95;100.00
62510;BME280;48558;48.242;11.654;2023-04-19T17:40:11;96286.31;;;5.88;100.00
62510;BME280;48558;48.242;11.654;2023-04-19T17:44:23;96278.88;;;5.89;100.00
62510;BME280;48558;48.242;11.654;2023-04-19T17:48:38;96284.09;;;5.83;100.00
62510;BME280;48558;48.242;11.654;2023-04-19T17:52:50;96288.31;;;5.88;100.00
62510;BME280;48558;48.242;11.654;2023-04-19T17:57:04;96289.50;;;5.70;100.00
62510;BME280;48558;48.242;11.654;2023-04-19T18:01:16;96297.47;;;5.81;100.00
62510;BME280;48558;48.242;11.654;2023-04-19T18:05:29;96293.69;;;5.75;100.00
62510;BME280;48558;48.242;11.654;2023-04-19T18:09:51;96298.22;;;5.81;100.00
62510;BME280;48558;48.242;11.654;2023-04-19T18:14:04;96296.88;;;5.73;100.00
62510;BME280;48558;48.242;11.654;2023-04-19T18:18:16;96281.88;;;5.78;100.00
62510;BME280;48558;48.242;11.654;2023-04-19T18:22:29;96289.50;;;5.70;100.00
62510;BME280;48558;48.242;11.654;2023-04-19T18:26:42;96295.34;;;5.56;100.00
62510;BME280;48558;48.242;11.654;2023-04-19T18:30:55;96303.31;;;5.35;100.00
62510;BME280;48558;48.242;11.654;2023-04-19T18:35:14;96311.28;;;5.45;100.00
62510;BME280;48558;48.242;11.654;2023-04-19T18:39:26;96306.13;;;5.47;100.00
62510;BME280;48558;48.242;11.654;2023-04-19T18:43:39;96309.25;;;5.49;100.00
62510;BME280;48558;48.242;11.654;2023-04-19T18:47:53;96311.28;;;5.45;100.00
62510;BME280;48558;48.242;11.654;2023-04-19T18:52:06;96315.22;;;5.44;100.00
62510;BME280;48558;48.242;11.654;2023-04-19T18:56:24;96326.44;;;5.50;100.00
62510;BME280;48558;48.242;11.654;2023-04-19T19:00:57;96326.25;;;5.41;100.00
62510;BME280;48558;48.242;11.654;2023-04-19T19:05:09;96335.88;;;5.49;100.00
62510;BME280;48558;48.242;11.654;2023-04-19T19:09:24;96324.31;;;5.41;100.00
62510;BME280;48558;48.242;11.654;2023-04-19T19:13:37;96342.81;;;5.37;100.00
62510;BME280;48558;48.242;11.654;2023-04-19T19:17:50;96353.16;;;5.46;100.00
62510;BME280;48558;48.242;11.654;2023-04-19T19:22:03;96349.56;;;5.49;100.00
62510;BME280;48558;48.242;11.654;2023-04-19T19:26:43;96352.66;;;5.51;100.00
62510;BME280;48558;48.242;11.654;2023-04-19T19:30:55;96339.19;;;5.56;100.00
62510;BME280;48558;48.242;11.654;2023-04-19T19:35:08;96331.66;;;5.44;100.00
62510;BME280;48558;48.242;11.654;2023-04-19T19:39:21;96346.31;;;5.38;100.00
62510;BME280;48558;48.242;11.654;2023-04-19T19:43:33;96361.38;;;5.46;100.00
62510;BME280;48558;48.242;11.654;2023-04-19T19:47:46;96350.69;;;5.35;100.00
62510;BME280;48558;48.242;11.654;2023-04-19T19:52:00;96351.34;;;5.39;100.00
62510;BME280;48558;48.242;11.654;2023-04-19T19:56:13;96336.53;;;5.37;100.00
62510;BME280;48558;48.242;11.654;2023-04-19T20:00:32;96331.56;;;5.32;100.00
62510;BME280;48558;48.242;11.654;2023-04-19T20:04:56;96329.88;;;5.22;100.00
62510;BME280;48558;48.242;11.654;2023-04-19T20:09:09;96335.66;;;5.07;100.00
62510;BME280;48558;48.242;11.654;2023-04-19T20:13:21;96330.97;;;5.08;100.00
62510;BME280;48558;48.242;11.654;2023-04-19T20:17:34;96317.59;;;5.10;100.00
62510;BME280;48558;48.242;11.654;2023-04-19T20:21:46;96320.69;;;5.12;100.00
62510;BME280;48558;48.242;11.654;2023-04-19T20:25:59;96327.84;;;4.90;100.00
62510;BME280;48558;48.242;11.654;2023-04-19T20:30:12;96327.50;;;4.88;100.00
62510;BME280;48558;48.242;11.654;2023-04-19T20:34:25;96336.59;;;5.01;100.00
62510;BME280;48558;48.242;11.654;2023-04-19T20:38:38;96327.69;;;4.97;100.00
62510;BME280;48558;48.242;11.654;2023-04-19T20:42:50;96332.81;;;4.95;100.00
62510;BME280;48558;48.242;11.654;2023-04-19T20:47:03;96325.34;;;4.95;100.00
62510;BME280;48558;48.242;11.654;2023-04-19T20:51:25;96321.00;;;4.98;100.00
62510;BME280;48558;48.242;11.654;2023-04-19T20:55:48;96304.38;;;4.89;100.00
62510;BME280;48558;48.242;11.654;2023-04-19T21:00:02;96312.38;;;4.99;100.00
62510;BME280;48558;48.242;11.654;2023-04-19T21:04:16;96326.13;;;4.96;100.00
62510;BME280;48558;48.242;11.654;2023-04-19T21:08:28;96320.13;;;4.85;100.00
62510;BME280;48558;48.242;11.654;2023-04-19T21:12:41;96304.72;;;4.75;100.00
62510;BME280;48558;48.242;11.654;2023-04-19T21:16:54;96308.06;;;4.82;100.00
62510;BME280;48558;48.242;11.654;2023-04-19T21:21:06;96306.00;;;4.86;100.00
62510;BME280;48558;48.242;11.654;2023-04-19T21:25:19;96290.03;;;4.85;100.00
62510;BME280;48558;48.242;11.654;2023-04-19T21:29:39;96303.38;;;4.83;100.00
62510;BME280;48558;48.242;11.654;2023-04-19T21:33:52;96279.56;;;4.80;100.00
62510;BME280;48558;48.242;11.654;2023-04-19T21:38:05;96274.53;;;4.78;100.00
62510;BME280;48558;48.242;11.654;2023-04-19T21:42:18;96275.53;;;4.68;100.00
62510;BME280;48558;48.242;11.654;2023-04-19T21:46:30;96279.03;;;4.69;100.00
62510;BME280;48558;48.242;11.654;2023-04-19T21:50:43;96273.66;;;4.65;100.00
62510;BME280;48558;48.242;11.654;2023-04-19T21:54:55;96274.16;;;4.60;100.00
62510;BME280;48558;48.242;11.654;2023-04-19T21:59:08;96274.59;;;4.59;100.00
62510;BME280;48558;48.242;11.654;2023-04-19T22:03:20;96278.19;;;4.72;100.00
62510;BME280;48558;48.242;11.654;2023-04-19T22:07:33;96274.53;;;4.78;100.00
62510;BME280;48558;48.242;11.654;2023-04-19T22:11:49;96258.88;;;4.79;100.00
62510;BME280;48558;48.242;11.654;2023-04-19T22:16:02;96265.81;;;4.83;100.00